sensor_id;sensor_type;location;lat;lon;timestamp;P1;durP1;ratioP1;P2;durP2;ratioP2
5058;SDS011;2548;52.050;11.036;2022-08-26T00:02:18;24.10;;;11.03;;
5058;SDS011;2548;52.050;11.036;2022-08-26T00:04:45;22.70;;;12.40;;
5058;SDS011;2548;52.050;11.036;2022-08-26T00:07:12;14.90;;;11.70;;
5058;SDS011;2548;52.050;11.036;2022-08-26T00:09:40;29.83;;;12.60;;
5058;SDS011;2548;52.050;11.036;2022-08-26T00:12:07;39.07;;;11.23;;
5058;SDS011;2548;52.050;11.036;2022-08-26T00:14:36;22.53;;;11.60;;
5058;SDS011;2548;52.050;11.036;2022-08-26T00:17:04;22.70;;;11.90;;
5058;SDS011;2548;52.050;11.036;2022-08-26T00:19:31;21.57;;;11.00;;
5058;SDS011;2548;52.050;11.036;2022-08-26T00:21:59;22.87;;;11.40;;
5058;SDS011;2548;52.050;11.036;2022-08-26T00:24:26;17.50;;;10.77;;
5058;SDS011;2548;52.050;11.036;2022-08-26T00:26:54;19.20;;;11.13;;
5058;SDS011;2548;52.050;11.036;2022-08-26T00:29:21;24.20;;;11.20;;
5058;SDS011;2548;52.050;11.036;2022-08-26T00:31:50;29.90;;;12.07;;
5058;SDS011;2548;52.050;11.036;2022-08-26T00:34:17;18.50;;;11.13;;
5058;SDS011;2548;52.050;11.036;2022-08-26T00:36:45;20.63;;;10.90;;
5058;SDS011;2548;52.050;11.036;2022-08-26T00:39:13;21.20;;;11.90;;
5058;SDS011;2548;52.050;11.036;2022-08-26T00:41:40;23.30;;;11.07;;
5058;SDS011;2548;52.050;11.036;2022-08-26T00:44:08;26.27;;;12.30;;
5058;SDS011;2548;52.050;11.036;2022-08-26T00:46:38;27.77;;;11.90;;
5058;SDS011;2548;52.050;11.036;2022-08-26T00:49:10;24.80;;;11.30;;
5058;SDS011;2548;52.050;11.036;2022-08-26T00:51:42;19.90;;;11.50;;
5058;SDS011;2548;52.050;11.036;2022-08-26T00:54:13;17.93;;;11.07;;
5058;SDS011;2548;52.050;11.036;2022-08-26T00:56:42;25.47;;;12.30;;
5058;SDS011;2548;52.050;11.036;2022-08-26T00:59:14;26.80;;;11.67;;
5058;SDS011;2548;52.050;11.036;2022-08-26T01:01:43;27.40;;;11.13;;
5058;SDS011;2548;52.050;11.036;2022-08-26T01:04:12;18.23;;;11.43;;
5058;SDS011;2548;52.050;11.036;2022-08-26T01:06:43;25.70;;;11.73;;
5058;SDS011;2548;52.050;11.036;2022-08-26T01:09:11;17.67;;;10.97;;
5058;SDS011;2548;52.050;11.036;2022-08-26T01:11:38;16.77;;;12.07;;
5058;SDS011;2548;52.050;11.036;2022-08-26T01:14:06;30.33;;;12.17;;
5058;SDS011;2548;52.050;11.036;2022-08-26T01:16:36;17.13;;;10.70;;
5058;SDS011;2548;52.050;11.036;2022-08-26T01:19:05;28.13;;;11.30;;
5058;SDS011;2548;52.050;11.036;2022-08-26T01:21:43;28.40;;;11.90;;
5058;SDS011;2548;52.050;11.036;2022-08-26T01:24:16;23.70;;;13.10;;
5058;SDS011;2548;52.050;11.036;2022-08-26T01:26:44;24.20;;;12.43;;
5058;SDS011;2548;52.050;11.036;2022-08-26T01:29:13;19.17;;;11.27;;
5058;SDS011;2548;52.050;11.036;2022-08-26T01:31:43;16.37;;;10.90;;
5058;SDS011;2548;52.050;11.036;2022-08-26T01:34:13;24.27;;;11.33;;
5058;SDS011;2548;52.050;11.036;2022-08-26T01:36:43;28.87;;;11.87;;
5058;SDS011;2548;52.050;11.036;2022-08-26T01:39:11;25.20;;;11.40;;
5058;SDS011;2548;52.050;11.036;2022-08-26T01:41:40;20.40;;;11.10;;
5058;SDS011;2548;52.050;11.036;2022-08-26T01:44:12;22.40;;;11.10;;
5058;SDS011;2548;52.050;11.036;2022-08-26T01:46:43;22.87;;;12.33;;
5058;SDS011;2548;52.050;11.036;2022-08-26T01:49:12;27.87;;;11.50;;
5058;SDS011;2548;52.050;11.036;2022-08-26T01:51:40;25.93;;;11.70;;
5058;SDS011;2548;52.050;11.036;2022-08-26T01:54:09;13.93;;;11.00;;
5058;SDS011;2548;52.050;11.036;2022-08-26T01:56:37;14.40;;;10.73;;
5058;SDS011;2548;52.050;11.036;2022-08-26T01:59:07;21.13;;;11.30;;
5058;SDS011;2548;52.050;11.036;2022-08-26T02:01:37;21.80;;;11.50;;
5058;SDS011;2548;52.050;11.036;2022-08-26T02:04:07;22.10;;;11.47;;
5058;SDS011;2548;52.050;11.036;2022-08-26T02:06:41;19.70;;;10.83;;
5058;SDS011;2548;52.050;11.036;2022-08-26T02:09:10;21.20;;;12.67;;
5058;SDS011;2548;52.050;11.036;2022-08-26T02:11:39;15.93;;;11.30;;
5058;SDS011;2548;52.050;11.036;2022-08-26T02:14:07;21.23;;;12.00;;
5058;SDS011;2548;52.050;11.036;2022-08-26T02:16:39;18.73;;;10.07;;
5058;SDS011;2548;52.050;11.036;2022-08-26T02:19:10;24.80;;;11.57;;
5058;SDS011;2548;52.050;11.036;2022-08-26T02:21:42;26.70;;;12.90;;
5058;SDS011;2548;52.050;11.036;2022-08-26T02:24:11;25.50;;;11.83;;
5058;SDS011;2548;52.050;11.036;2022-08-26T02:26:42;15.80;;;11.10;;
5058;SDS011;2548;52.050;11.036;2022-08-26T02:29:12;21.77;;;11.53;;
5058;SDS011;2548;52.050;11.036;2022-08-26T02:31:44;15.83;;;10.97;;
5058;SDS011;2548;52.050;11.036;2022-08-26T02:34:13;22.43;;;12.07;;
5058;SDS011;2548;52.050;11.036;2022-08-26T02:36:44;21.70;;;12.47;;
5058;SDS011;2548;52.050;11.036;2022-08-26T02:39:12;15.97;;;11.80;;
5058;SDS011;2548;52.050;11.036;2022-08-26T02:41:42;25.37;;;13.20;;
5058;SDS011;2548;52.050;11.036;2022-08-26T02:44:11;18.73;;;12.97;;
5058;SDS011;2548;52.050;11.036;2022-08-26T02:46:38;28.23;;;12.60;;
5058;SDS011;2548;52.050;11.036;2022-08-26T02:49:06;26.90;;;12.77;;
5058;SDS011;2548;52.050;11.036;2022-08-26T02:51:34;21.73;;;11.47;;
5058;SDS011;2548;52.050;11.036;2022-08-26T02:54:01;19.13;;;12.00;;
5058;SDS011;2548;52.050;11.036;2022-08-26T02:56:31;24.53;;;13.17;;
5058;SDS011;2548;52.050;11.036;2022-08-26T02:59:00;23.60;;;13.40;;
5058;SDS011;2548;52.050;11.036;2022-08-26T03:01:29;18.60;;;12.27;;
5058;SDS011;2548;52.050;11.036;2022-08-26T03:03:58;21.10;;;13.33;;
5058;SDS011;2548;52.050;11.036;2022-08-26T03:06:27;27.43;;;13.10;;
5058;SDS011;2548;52.050;11.036;2022-08-26T03:08:55;24.53;;;12.40;;
5058;SDS011;2548;52.050;11.036;2022-08-26T03:11:23;28.10;;;12.50;;
5058;SDS011;2548;52.050;11.036;2022-08-26T03:13:51;22.23;;;15.03;;
5058;SDS011;2548;52.050;11.036;2022-08-26T03:16:20;17.30;;;12.50;;
5058;SDS011;2548;52.050;11.036;2022-08-26T03:18:47;20.53;;;13.40;;
5058;SDS011;2548;52.050;11.036;2022-08-26T03:21:15;28.93;;;13.70;;
5058;SDS011;2548;52.050;11.036;2022-08-26T03:23:43;30.43;;;13.17;;
5058;SDS011;2548;52.050;11.036;2022-08-26T03:26:12;24.33;;;14.10;;
5058;SDS011;2548;52.050;11.036;2022-08-26T03:28:41;17.90;;;11.43;;
5058;SDS011;2548;52.050;11.036;2022-08-26T03:31:24;23.00;;;12.60;;
5058;SDS011;2548;52.050;11.036;2022-08-26T03:33:51;15.83;;;12.10;;
5058;SDS011;2548;52.050;11.036;2022-08-26T03:36:19;22.43;;;14.43;;
5058;SDS011;2548;52.050;11.036;2022-08-26T03:38:47;22.30;;;13.53;;
5058;SDS011;2548;52.050;11.036;2022-08-26T03:41:15;24.03;;;13.90;;
5058;SDS011;2548;52.050;11.036;2022-08-26T03:43:43;22.83;;;13.03;;
5058;SDS011;2548;52.050;11.036;2022-08-26T03:46:12;25.93;;;13.07;;
5058;SDS011;2548;52.050;11.036;2022-08-26T03:48:42;14.90;;;11.67;;
5058;SDS011;2548;52.050;11.036;2022-08-26T03:51:10;26.30;;;13.73;;
5058;SDS011;2548;52.050;11.036;2022-08-26T03:53:39;18.20;;;12.87;;
5058;SDS011;2548;52.050;11.036;2022-08-26T03:56:07;23.23;;;14.20;;
5058;SDS011;2548;52.050;11.036;2022-08-26T03:58:35;22.80;;;13.77;;
5058;SDS011;2548;52.050;11.036;2022-08-26T04:01:03;22.33;;;13.00;;
5058;SDS011;2548;52.050;11.036;2022-08-26T04:03:30;24.03;;;13.27;;
5058;SDS011;2548;52.050;11.036;2022-08-26T04:06:17;26.43;;;14.13;;
5058;SDS011;2548;52.050;11.036;2022-08-26T04:08:45;31.90;;;14.43;;
5058;SDS011;2548;52.050;11.036;2022-08-26T04:11:15;23.60;;;14.97;;
5058;SDS011;2548;52.050;11.036;2022-08-26T04:13:44;35.13;;;15.30;;
5058;SDS011;2548;52.050;11.036;2022-08-26T04:16:12;24.73;;;14.03;;
5058;SDS011;2548;52.050;11.036;2022-08-26T04:18:39;28.03;;;13.73;;
5058;SDS011;2548;52.050;11.036;2022-08-26T04:21:07;32.27;;;13.10;;
5058;SDS011;2548;52.050;11.036;2022-08-26T04:23:38;20.43;;;13.27;;
5058;SDS011;2548;52.050;11.036;2022-08-26T04:26:05;23.77;;;13.40;;
5058;SDS011;2548;52.050;11.036;2022-08-26T04:28:33;23.27;;;13.27;;
5058;SDS011;2548;52.050;11.036;2022-08-26T04:31:00;20.23;;;13.13;;
5058;SDS011;2548;52.050;11.036;2022-08-26T04:33:28;28.63;;;13.20;;
5058;SDS011;2548;52.050;11.036;2022-08-26T04:35:59;24.37;;;14.63;;
5058;SDS011;2548;52.050;11.036;2022-08-26T04:38:27;22.20;;;14.50;;
5058;SDS011;2548;52.050;11.036;2022-08-26T04:40:56;22.13;;;14.40;;
5058;SDS011;2548;52.050;11.036;2022-08-26T04:43:23;43.07;;;14.07;;
5058;SDS011;2548;52.050;11.036;2022-08-26T04:45:55;23.10;;;14.40;;
5058;SDS011;2548;52.050;11.036;2022-08-26T04:48:24;20.10;;;14.93;;
5058;SDS011;2548;52.050;11.036;2022-08-26T04:50:52;21.53;;;14.60;;
5058;SDS011;2548;52.050;11.036;2022-08-26T04:53:19;29.63;;;16.90;;
5058;SDS011;2548;52.050;11.036;2022-08-26T04:55:47;27.23;;;15.53;;
5058;SDS011;2548;52.050;11.036;2022-08-26T04:58:17;35.50;;;15.53;;
5058;SDS011;2548;52.050;11.036;2022-08-26T05:00:47;30.07;;;15.33;;
5058;SDS011;2548;52.050;11.036;2022-08-26T05:03:15;24.40;;;14.80;;
5058;SDS011;2548;52.050;11.036;2022-08-26T05:05:44;26.23;;;16.27;;
5058;SDS011;2548;52.050;11.036;2022-08-26T05:08:14;24.70;;;15.13;;
5058;SDS011;2548;52.050;11.036;2022-08-26T05:10:44;28.93;;;15.87;;
5058;SDS011;2548;52.050;11.036;2022-08-26T05:13:14;25.10;;;14.77;;
5058;SDS011;2548;52.050;11.036;2022-08-26T05:15:45;31.60;;;14.90;;
5058;SDS011;2548;52.050;11.036;2022-08-26T05:18:14;21.87;;;14.50;;
5058;SDS011;2548;52.050;11.036;2022-08-26T05:20:44;26.93;;;14.80;;
5058;SDS011;2548;52.050;11.036;2022-08-26T05:23:13;20.37;;;13.60;;
5058;SDS011;2548;52.050;11.036;2022-08-26T05:25:43;23.90;;;15.37;;
5058;SDS011;2548;52.050;11.036;2022-08-26T05:28:12;22.03;;;15.90;;
5058;SDS011;2548;52.050;11.036;2022-08-26T05:30:42;24.53;;;15.23;;
5058;SDS011;2548;52.050;11.036;2022-08-26T05:33:10;35.53;;;17.10;;
5058;SDS011;2548;52.050;11.036;2022-08-26T05:35:38;30.13;;;17.60;;
5058;SDS011;2548;52.050;11.036;2022-08-26T05:38:06;28.80;;;16.77;;
5058;SDS011;2548;52.050;11.036;2022-08-26T05:40:36;33.93;;;20.10;;
5058;SDS011;2548;52.050;11.036;2022-08-26T05:43:06;34.93;;;19.07;;
5058;SDS011;2548;52.050;11.036;2022-08-26T05:45:36;41.73;;;17.97;;
5058;SDS011;2548;52.050;11.036;2022-08-26T05:48:05;29.67;;;18.47;;
5058;SDS011;2548;52.050;11.036;2022-08-26T05:50:36;27.13;;;18.00;;
5058;SDS011;2548;52.050;11.036;2022-08-26T05:53:05;37.17;;;18.70;;
5058;SDS011;2548;52.050;11.036;2022-08-26T05:55:32;37.27;;;19.70;;
5058;SDS011;2548;52.050;11.036;2022-08-26T05:58:00;39.50;;;19.77;;
5058;SDS011;2548;52.050;11.036;2022-08-26T06:00:27;32.30;;;19.37;;
5058;SDS011;2548;52.050;11.036;2022-08-26T06:02:55;34.57;;;20.07;;
5058;SDS011;2548;52.050;11.036;2022-08-26T06:05:24;27.93;;;17.37;;
5058;SDS011;2548;52.050;11.036;2022-08-26T06:07:51;34.00;;;19.87;;
5058;SDS011;2548;52.050;11.036;2022-08-26T06:10:42;25.97;;;17.63;;
5058;SDS011;2548;52.050;11.036;2022-08-26T06:13:13;37.90;;;19.73;;
5058;SDS011;2548;52.050;11.036;2022-08-26T06:15:42;26.07;;;18.37;;
5058;SDS011;2548;52.050;11.036;2022-08-26T06:18:11;32.80;;;18.03;;
5058;SDS011;2548;52.050;11.036;2022-08-26T06:20:42;32.70;;;19.33;;
5058;SDS011;2548;52.050;11.036;2022-08-26T06:23:10;38.50;;;19.20;;
5058;SDS011;2548;52.050;11.036;2022-08-26T06:25:56;35.17;;;18.17;;
5058;SDS011;2548;52.050;11.036;2022-08-26T06:28:25;33.90;;;17.73;;
5058;SDS011;2548;52.050;11.036;2022-08-26T06:30:53;36.87;;;18.30;;
5058;SDS011;2548;52.050;11.036;2022-08-26T06:33:20;36.57;;;19.63;;
5058;SDS011;2548;52.050;11.036;2022-08-26T06:35:49;32.63;;;19.20;;
5058;SDS011;2548;52.050;11.036;2022-08-26T06:38:18;27.97;;;16.97;;
5058;SDS011;2548;52.050;11.036;2022-08-26T06:40:47;37.23;;;20.67;;
5058;SDS011;2548;52.050;11.036;2022-08-26T06:43:16;35.47;;;18.50;;
5058;SDS011;2548;52.050;11.036;2022-08-26T06:45:45;40.63;;;17.93;;
5058;SDS011;2548;52.050;11.036;2022-08-26T06:48:13;33.53;;;19.40;;
5058;SDS011;2548;52.050;11.036;2022-08-26T06:50:42;33.97;;;18.80;;
5058;SDS011;2548;52.050;11.036;2022-08-26T06:53:12;30.40;;;18.23;;
5058;SDS011;2548;52.050;11.036;2022-08-26T06:55:40;27.07;;;16.63;;
5058;SDS011;2548;52.050;11.036;2022-08-26T06:58:10;37.77;;;18.70;;
5058;SDS011;2548;52.050;11.036;2022-08-26T07:00:39;25.47;;;18.03;;
5058;SDS011;2548;52.050;11.036;2022-08-26T07:03:06;27.53;;;17.90;;
5058;SDS011;2548;52.050;11.036;2022-08-26T07:05:34;30.07;;;17.53;;
5058;SDS011;2548;52.050;11.036;2022-08-26T07:08:03;21.83;;;16.37;;
5058;SDS011;2548;52.050;11.036;2022-08-26T07:10:32;26.33;;;17.40;;
5058;SDS011;2548;52.050;11.036;2022-08-26T07:13:01;26.97;;;16.60;;
5058;SDS011;2548;52.050;11.036;2022-08-26T07:15:28;30.10;;;17.13;;
5058;SDS011;2548;52.050;11.036;2022-08-26T07:17:55;29.03;;;15.60;;
5058;SDS011;2548;52.050;11.036;2022-08-26T07:20:23;37.73;;;17.13;;
5058;SDS011;2548;52.050;11.036;2022-08-26T07:22:51;27.90;;;16.40;;
5058;SDS011;2548;52.050;11.036;2022-08-26T07:25:18;29.80;;;16.00;;
5058;SDS011;2548;52.050;11.036;2022-08-26T07:27:47;33.87;;;15.77;;
5058;SDS011;2548;52.050;11.036;2022-08-26T07:30:15;30.20;;;13.77;;
5058;SDS011;2548;52.050;11.036;2022-08-26T07:32:42;30.53;;;15.33;;
5058;SDS011;2548;52.050;11.036;2022-08-26T07:35:09;25.93;;;14.77;;
5058;SDS011;2548;52.050;11.036;2022-08-26T07:37:37;30.93;;;14.63;;
5058;SDS011;2548;52.050;11.036;2022-08-26T07:40:05;36.90;;;14.70;;
5058;SDS011;2548;52.050;11.036;2022-08-26T07:42:33;26.90;;;15.23;;
5058;SDS011;2548;52.050;11.036;2022-08-26T07:45:03;39.00;;;14.90;;
5058;SDS011;2548;52.050;11.036;2022-08-26T07:47:31;25.73;;;12.80;;
5058;SDS011;2548;52.050;11.036;2022-08-26T07:49:58;29.70;;;14.30;;
5058;SDS011;2548;52.050;11.036;2022-08-26T07:52:26;37.10;;;13.70;;
5058;SDS011;2548;52.050;11.036;2022-08-26T07:54:56;33.37;;;14.37;;
5058;SDS011;2548;52.050;11.036;2022-08-26T07:57:26;28.50;;;13.37;;
5058;SDS011;2548;52.050;11.036;2022-08-26T07:59:55;23.23;;;14.60;;
5058;SDS011;2548;52.050;11.036;2022-08-26T08:02:24;32.40;;;13.80;;
5058;SDS011;2548;52.050;11.036;2022-08-26T08:04:53;28.73;;;13.80;;
5058;SDS011;2548;52.050;11.036;2022-08-26T08:07:21;32.40;;;13.43;;
5058;SDS011;2548;52.050;11.036;2022-08-26T08:09:49;28.17;;;13.80;;
5058;SDS011;2548;52.050;11.036;2022-08-26T08:12:16;42.23;;;12.57;;
5058;SDS011;2548;52.050;11.036;2022-08-26T08:14:45;35.43;;;13.33;;
5058;SDS011;2548;52.050;11.036;2022-08-26T08:17:13;34.13;;;12.50;;
5058;SDS011;2548;52.050;11.036;2022-08-26T08:19:42;37.30;;;13.77;;
5058;SDS011;2548;52.050;11.036;2022-08-26T08:22:09;41.77;;;12.70;;
5058;SDS011;2548;52.050;11.036;2022-08-26T08:24:37;30.67;;;13.03;;
5058;SDS011;2548;52.050;11.036;2022-08-26T08:27:05;31.63;;;12.80;;
5058;SDS011;2548;52.050;11.036;2022-08-26T08:29:32;44.70;;;13.73;;
5058;SDS011;2548;52.050;11.036;2022-08-26T08:32:02;34.97;;;12.80;;
5058;SDS011;2548;52.050;11.036;2022-08-26T08:34:30;31.33;;;12.53;;
5058;SDS011;2548;52.050;11.036;2022-08-26T08:36:59;37.00;;;12.97;;
5058;SDS011;2548;52.050;11.036;2022-08-26T08:39:26;33.13;;;12.10;;
5058;SDS011;2548;52.050;11.036;2022-08-26T08:44:58;27.43;;;12.30;;
5058;SDS011;2548;52.050;11.036;2022-08-26T08:47:33;32.87;;;12.37;;
5058;SDS011;2548;52.050;11.036;2022-08-26T08:50:05;22.10;;;12.23;;
5058;SDS011;2548;52.050;11.036;2022-08-26T08:52:45;42.70;;;13.27;;
5058;SDS011;2548;52.050;11.036;2022-08-26T08:55:18;40.07;;;13.63;;
5058;SDS011;2548;52.050;11.036;2022-08-26T08:57:49;72.87;;;14.07;;
5058;SDS011;2548;52.050;11.036;2022-08-26T09:00:23;35.73;;;12.40;;
5058;SDS011;2548;52.050;11.036;2022-08-26T09:02:55;21.03;;;11.77;;
5058;SDS011;2548;52.050;11.036;2022-08-26T09:05:27;37.43;;;13.60;;
5058;SDS011;2548;52.050;11.036;2022-08-26T09:08:00;22.10;;;10.73;;
5058;SDS011;2548;52.050;11.036;2022-08-26T09:10:33;30.43;;;12.33;;
5058;SDS011;2548;52.050;11.036;2022-08-26T09:13:04;26.43;;;12.80;;
5058;SDS011;2548;52.050;11.036;2022-08-26T09:15:39;32.87;;;12.83;;
5058;SDS011;2548;52.050;11.036;2022-08-26T09:18:23;31.40;;;11.40;;
5058;SDS011;2548;52.050;11.036;2022-08-26T09:20:59;34.73;;;13.30;;
5058;SDS011;2548;52.050;11.036;2022-08-26T09:23:29;37.00;;;11.70;;
5058;SDS011;2548;52.050;11.036;2022-08-26T09:26:02;37.10;;;13.80;;
5058;SDS011;2548;52.050;11.036;2022-08-26T09:28:40;36.83;;;11.97;;
5058;SDS011;2548;52.050;11.036;2022-08-26T09:31:11;33.23;;;11.27;;
5058;SDS011;2548;52.050;11.036;2022-08-26T09:33:40;32.20;;;12.17;;
5058;SDS011;2548;52.050;11.036;2022-08-26T09:36:12;42.00;;;11.70;;
5058;SDS011;2548;52.050;11.036;2022-08-26T09:38:44;22.83;;;11.23;;
5058;SDS011;2548;52.050;11.036;2022-08-26T09:41:22;29.40;;;11.20;;
5058;SDS011;2548;52.050;11.036;2022-08-26T09:46:43;26.67;;;12.00;;
5058;SDS011;2548;52.050;11.036;2022-08-26T09:49:19;32.37;;;11.70;;
5058;SDS011;2548;52.050;11.036;2022-08-26T09:52:05;25.70;;;10.43;;
5058;SDS011;2548;52.050;11.036;2022-08-26T09:54:37;32.33;;;11.00;;
5058;SDS011;2548;52.050;11.036;2022-08-26T09:57:18;33.70;;;10.97;;
5058;SDS011;2548;52.050;11.036;2022-08-26T09:59:50;30.57;;;11.20;;
5058;SDS011;2548;52.050;11.036;2022-08-26T10:02:35;27.30;;;11.80;;
5058;SDS011;2548;52.050;11.036;2022-08-26T10:05:08;21.60;;;10.60;;
5058;SDS011;2548;52.050;11.036;2022-08-26T10:07:42;27.60;;;10.87;;
5058;SDS011;2548;52.050;11.036;2022-08-26T10:10:14;35.33;;;10.87;;
5058;SDS011;2548;52.050;11.036;2022-08-26T10:12:51;28.37;;;10.50;;
5058;SDS011;2548;52.050;11.036;2022-08-26T10:15:24;27.70;;;10.77;;
5058;SDS011;2548;52.050;11.036;2022-08-26T10:17:54;33.67;;;9.90;;
5058;SDS011;2548;52.050;11.036;2022-08-26T10:20:30;35.03;;;10.37;;
5058;SDS011;2548;52.050;11.036;2022-08-26T10:23:04;28.87;;;10.87;;
5058;SDS011;2548;52.050;11.036;2022-08-26T10:25:39;27.50;;;10.13;;
5058;SDS011;2548;52.050;11.036;2022-08-26T10:28:15;34.13;;;10.83;;
5058;SDS011;2548;52.050;11.036;2022-08-26T10:30:50;35.20;;;10.73;;
5058;SDS011;2548;52.050;11.036;2022-08-26T10:33:22;29.03;;;10.60;;
5058;SDS011;2548;52.050;11.036;2022-08-26T10:35:50;27.13;;;9.20;;
5058;SDS011;2548;52.050;11.036;2022-08-26T10:38:21;27.60;;;10.10;;
5058;SDS011;2548;52.050;11.036;2022-08-26T10:40:57;23.83;;;9.00;;
5058;SDS011;2548;52.050;11.036;2022-08-26T10:43:29;23.13;;;8.77;;
5058;SDS011;2548;52.050;11.036;2022-08-26T10:46:02;29.33;;;9.83;;
5058;SDS011;2548;52.050;11.036;2022-08-26T10:48:32;27.87;;;9.10;;
5058;SDS011;2548;52.050;11.036;2022-08-26T10:51:08;25.90;;;9.20;;
5058;SDS011;2548;52.050;11.036;2022-08-26T10:53:40;27.90;;;7.60;;
5058;SDS011;2548;52.050;11.036;2022-08-26T10:56:21;32.60;;;9.23;;
5058;SDS011;2548;52.050;11.036;2022-08-26T10:58:58;36.17;;;8.00;;
5058;SDS011;2548;52.050;11.036;2022-08-26T11:01:33;23.73;;;8.83;;
5058;SDS011;2548;52.050;11.036;2022-08-26T11:04:11;22.43;;;8.27;;
5058;SDS011;2548;52.050;11.036;2022-08-26T11:09:55;22.43;;;9.37;;
5058;SDS011;2548;52.050;11.036;2022-08-26T11:18:34;28.70;;;9.27;;
5058;SDS011;2548;52.050;11.036;2022-08-26T11:30:39;25.00;;;7.97;;
5058;SDS011;2548;52.050;11.036;2022-08-26T11:36:26;33.00;;;9.20;;
5058;SDS011;2548;52.050;11.036;2022-08-26T11:38:59;18.60;;;8.43;;
5058;SDS011;2548;52.050;11.036;2022-08-26T11:41:27;23.03;;;7.60;;
5058;SDS011;2548;52.050;11.036;2022-08-26T11:43:57;22.40;;;8.43;;
5058;SDS011;2548;52.050;11.036;2022-08-26T11:46:28;20.33;;;7.40;;
5058;SDS011;2548;52.050;11.036;2022-08-26T11:49:01;33.30;;;8.10;;
5058;SDS011;2548;52.050;11.036;2022-08-26T11:51:31;31.37;;;7.97;;
5058;SDS011;2548;52.050;11.036;2022-08-26T11:54:09;29.40;;;8.90;;
5058;SDS011;2548;52.050;11.036;2022-08-26T11:56:39;16.87;;;6.90;;
5058;SDS011;2548;52.050;11.036;2022-08-26T11:59:10;20.83;;;8.40;;
5058;SDS011;2548;52.050;11.036;2022-08-26T12:01:43;25.53;;;8.33;;
5058;SDS011;2548;52.050;11.036;2022-08-26T12:04:16;26.93;;;9.07;;
5058;SDS011;2548;52.050;11.036;2022-08-26T12:06:52;35.43;;;9.20;;
5058;SDS011;2548;52.050;11.036;2022-08-26T12:09:20;25.63;;;8.33;;
5058;SDS011;2548;52.050;11.036;2022-08-26T12:11:50;33.27;;;8.10;;
5058;SDS011;2548;52.050;11.036;2022-08-26T12:14:21;25.13;;;7.83;;
5058;SDS011;2548;52.050;11.036;2022-08-26T12:16:50;22.53;;;8.00;;
5058;SDS011;2548;52.050;11.036;2022-08-26T12:19:22;31.37;;;8.87;;
5058;SDS011;2548;52.050;11.036;2022-08-26T12:21:52;31.33;;;7.40;;
5058;SDS011;2548;52.050;11.036;2022-08-26T12:24:24;29.50;;;8.37;;
5058;SDS011;2548;52.050;11.036;2022-08-26T12:27:02;24.00;;;9.27;;
5058;SDS011;2548;52.050;11.036;2022-08-26T12:29:38;23.10;;;7.53;;
5058;SDS011;2548;52.050;11.036;2022-08-26T12:32:06;20.73;;;8.17;;
5058;SDS011;2548;52.050;11.036;2022-08-26T12:34:38;38.87;;;9.17;;
5058;SDS011;2548;52.050;11.036;2022-08-26T12:37:08;20.93;;;7.97;;
5058;SDS011;2548;52.050;11.036;2022-08-26T12:39:38;15.20;;;7.80;;
5058;SDS011;2548;52.050;11.036;2022-08-26T12:42:21;32.67;;;8.83;;
5058;SDS011;2548;52.050;11.036;2022-08-26T12:44:58;19.57;;;8.57;;
5058;SDS011;2548;52.050;11.036;2022-08-26T12:47:29;27.70;;;8.40;;
5058;SDS011;2548;52.050;11.036;2022-08-26T12:49:59;28.20;;;8.37;;
5058;SDS011;2548;52.050;11.036;2022-08-26T12:52:31;21.63;;;8.07;;
5058;SDS011;2548;52.050;11.036;2022-08-26T12:55:02;29.33;;;8.77;;
5058;SDS011;2548;52.050;11.036;2022-08-26T12:57:32;31.17;;;9.17;;
5058;SDS011;2548;52.050;11.036;2022-08-26T13:02:50;22.53;;;8.83;;
5058;SDS011;2548;52.050;11.036;2022-08-26T13:05:18;26.53;;;8.90;;
5058;SDS011;2548;52.050;11.036;2022-08-26T13:10:37;22.80;;;8.60;;
5058;SDS011;2548;52.050;11.036;2022-08-26T13:13:08;26.37;;;9.30;;
5058;SDS011;2548;52.050;11.036;2022-08-26T13:15:39;28.77;;;9.10;;
5058;SDS011;2548;52.050;11.036;2022-08-26T13:18:07;24.93;;;8.17;;
5058;SDS011;2548;52.050;11.036;2022-08-26T13:20:39;15.03;;;7.17;;
5058;SDS011;2548;52.050;11.036;2022-08-26T13:23:08;22.60;;;7.67;;
5058;SDS011;2548;52.050;11.036;2022-08-26T13:25:36;17.93;;;7.47;;
5058;SDS011;2548;52.050;11.036;2022-08-26T13:28:04;21.23;;;7.90;;
5058;SDS011;2548;52.050;11.036;2022-08-26T13:30:31;19.33;;;7.73;;
5058;SDS011;2548;52.050;11.036;2022-08-26T13:33:00;26.43;;;9.00;;
5058;SDS011;2548;52.050;11.036;2022-08-26T13:35:28;17.00;;;8.27;;
5058;SDS011;2548;52.050;11.036;2022-08-26T13:37:56;30.90;;;8.10;;
5058;SDS011;2548;52.050;11.036;2022-08-26T13:40:23;27.67;;;9.27;;
5058;SDS011;2548;52.050;11.036;2022-08-26T13:42:51;9.27;;;7.20;;
5058;SDS011;2548;52.050;11.036;2022-08-26T13:45:18;21.80;;;7.80;;
5058;SDS011;2548;52.050;11.036;2022-08-26T13:47:46;26.40;;;8.20;;
5058;SDS011;2548;52.050;11.036;2022-08-26T13:50:15;20.63;;;8.50;;
5058;SDS011;2548;52.050;11.036;2022-08-26T13:52:43;19.53;;;8.27;;
5058;SDS011;2548;52.050;11.036;2022-08-26T13:55:10;14.07;;;7.83;;
5058;SDS011;2548;52.050;11.036;2022-08-26T13:57:38;19.23;;;8.90;;
5058;SDS011;2548;52.050;11.036;2022-08-26T14:00:06;14.23;;;7.50;;
5058;SDS011;2548;52.050;11.036;2022-08-26T14:02:35;18.07;;;8.07;;
5058;SDS011;2548;52.050;11.036;2022-08-26T14:05:03;32.57;;;8.03;;
5058;SDS011;2548;52.050;11.036;2022-08-26T14:07:33;16.83;;;7.93;;
5058;SDS011;2548;52.050;11.036;2022-08-26T14:10:01;26.33;;;8.47;;
5058;SDS011;2548;52.050;11.036;2022-08-26T14:12:29;18.77;;;6.20;;
5058;SDS011;2548;52.050;11.036;2022-08-26T14:14:57;22.90;;;6.13;;
5058;SDS011;2548;52.050;11.036;2022-08-26T14:17:25;27.57;;;5.70;;
5058;SDS011;2548;52.050;11.036;2022-08-26T14:19:53;18.23;;;4.90;;
5058;SDS011;2548;52.050;11.036;2022-08-26T14:22:21;12.77;;;4.50;;
5058;SDS011;2548;52.050;11.036;2022-08-26T14:24:50;9.93;;;4.03;;
5058;SDS011;2548;52.050;11.036;2022-08-26T14:27:18;6.77;;;3.50;;
5058;SDS011;2548;52.050;11.036;2022-08-26T14:29:45;16.17;;;5.90;;
5058;SDS011;2548;52.050;11.036;2022-08-26T14:32:15;10.20;;;4.50;;
5058;SDS011;2548;52.050;11.036;2022-08-26T14:34:47;6.67;;;4.70;;
5058;SDS011;2548;52.050;11.036;2022-08-26T14:37:15;9.07;;;5.03;;
5058;SDS011;2548;52.050;11.036;2022-08-26T14:39:43;11.10;;;5.40;;
5058;SDS011;2548;52.050;11.036;2022-08-26T14:42:13;14.43;;;6.87;;
5058;SDS011;2548;52.050;11.036;2022-08-26T14:44:45;13.13;;;6.40;;
5058;SDS011;2548;52.050;11.036;2022-08-26T14:47:18;18.33;;;6.30;;
5058;SDS011;2548;52.050;11.036;2022-08-26T14:49:45;19.93;;;6.60;;
5058;SDS011;2548;52.050;11.036;2022-08-26T14:52:13;15.43;;;7.37;;
5058;SDS011;2548;52.050;11.036;2022-08-26T14:54:40;12.80;;;6.63;;
5058;SDS011;2548;52.050;11.036;2022-08-26T14:57:08;14.23;;;7.00;;
5058;SDS011;2548;52.050;11.036;2022-08-26T14:59:40;14.93;;;7.30;;
5058;SDS011;2548;52.050;11.036;2022-08-26T15:02:09;25.73;;;7.40;;
5058;SDS011;2548;52.050;11.036;2022-08-26T15:04:38;14.07;;;6.40;;
5058;SDS011;2548;52.050;11.036;2022-08-26T15:07:06;9.70;;;6.60;;
5058;SDS011;2548;52.050;11.036;2022-08-26T15:09:35;9.53;;;6.60;;
5058;SDS011;2548;52.050;11.036;2022-08-26T15:12:03;17.97;;;6.63;;
5058;SDS011;2548;52.050;11.036;2022-08-26T15:14:31;12.73;;;7.70;;
5058;SDS011;2548;52.050;11.036;2022-08-26T15:17:00;13.67;;;6.77;;
5058;SDS011;2548;52.050;11.036;2022-08-26T15:19:28;22.00;;;7.60;;
5058;SDS011;2548;52.050;11.036;2022-08-26T15:21:55;15.10;;;7.73;;
5058;SDS011;2548;52.050;11.036;2022-08-26T15:24:24;23.17;;;7.97;;
5058;SDS011;2548;52.050;11.036;2022-08-26T15:26:53;19.33;;;9.20;;
5058;SDS011;2548;52.050;11.036;2022-08-26T15:29:21;16.07;;;8.53;;